Time;durP1;ratioP1;P1;durP2;ratioP2;P2;SDS_P1;SDS_P2;PMS_P1;PMS_P2;Temp;Humidity;BMP_temperature;BMP_pressure;BME280_temperature;BME280_humidity;BME280_pressure;Samples;Min_cycle;Max_cycle;Signal;HPM_P1;HPM_P2
2024/01/23 00:00:21;;;;;;;10.20;5.80;;;;;;;5.13;75.52;100197.67;129836;1278;114785;-63
2024/01/23 00:03:43;;;;;;;10.20;6.30;;;;;;;5.08;75.77;100190.76;129765;1260;114739;-62
2024/01/23 00:06:45;;;;;;;10.20;6.60;;;;;;;5.09;76.00;100206.98;129827;1270;115065;-63
2024/01/23 00:09:47;;;;;;;8.50;4.90;;;;;;;5.09;75.90;100212.15;129805;1279;114799;-62
2024/01/23 00:12:49;;;;;;;9.60;6.30;;;;;;;5.07;75.96;100225.12;129659;1262;114935;-63
2024/01/23 00:15:51;;;;;;;10.90;6.10;;;;;;;5.05;76.03;100233.86;129731;1256;115113;-64
2024/01/23 00:18:53;;;;;;;13.10;7.30;;;;;;;4.98;76.18;100222.51;129635;1261;114721;-63
2024/01/23 00:21:55;;;;;;;11.40;6.60;;;;;;;4.95;76.49;100218.91;129523;1263;114805;-64
2024/01/23 00:24:58;;;;;;;11.60;6.90;;;;;;;4.94;76.81;100216.09;129702;1280;114777;-61
2024/01/23 00:28:00;;;;;;;11.40;6.70;;;;;;;4.93;77.08;100212.40;129668;1280;114729;-63
2024/01/23 00:31:02;;;;;;;11.00;6.40;;;;;;;4.93;77.19;100216.83;129722;1270;114763;-63
2024/01/23 00:34:04;;;;;;;9.70;6.70;;;;;;;4.94;77.36;100213.80;129475;1280;114878;-63
2024/01/23 00:37:06;;;;;;;10.50;5.60;;;;;;;4.94;77.56;100210.79;129657;1280;115186;-62
2024/01/23 00:40:11;;;;;;;9.50;6.30;;;;;;;4.94;77.57;100211.84;129687;1279;114726;-63
2024/01/23 00:43:14;;;;;;;9.80;5.60;;;;;;;4.95;77.75;100204.73;129517;1262;114852;-63
2024/01/23 00:46:16;;;;;;;11.10;6.70;;;;;;;4.97;77.86;100208.23;129617;1261;114696;-63
2024/01/23 00:49:21;;;;;;;7.70;5.50;;;;;;;4.98;77.87;100207.14;129632;1280;114801;-63
2024/01/23 00:52:23;;;;;;;8.50;6.50;;;;;;;4.99;77.91;100203.55;129691;1279;128826;-63
2024/01/23 00:55:25;;;;;;;9.90;5.60;;;;;;;5.00;78.14;100212.38;129732;1279;114789;-62
2024/01/23 00:58:27;;;;;;;10.60;5.90;;;;;;;5.03;77.99;100218.86;130682;1259;115276;-63
2024/01/23 01:01:29;;;;;;;10.70;5.70;;;;;;;5.03;77.80;100213.38;129547;1257;114785;-62
2024/01/23 01:04:31;;;;;;;11.30;6.20;;;;;;;5.01;77.99;100215.55;129721;1279;115158;-62
2024/01/23 01:07:33;;;;;;;9.80;6.00;;;;;;;4.99;78.01;100215.59;129704;1279;114763;-65
2024/01/23 01:10:35;;;;;;;9.30;5.80;;;;;;;4.97;77.97;100216.00;129798;1277;114648;-64
2024/01/23 01:13:37;;;;;;;12.40;6.90;;;;;;;4.96;78.05;100219.06;129693;1261;128876;-63
2024/01/23 01:16:40;;;;;;;8.80;5.20;;;;;;;4.93;78.17;100218.95;129609;1279;115076;-63
2024/01/23 01:19:41;;;;;;;9.50;5.40;;;;;;;4.90;78.11;100220.61;129678;1257;115344;-63
2024/01/23 01:22:43;;;;;;;9.40;5.00;;;;;;;4.89;78.29;100213.05;129844;1276;114736;-63
2024/01/23 01:25:45;;;;;;;9.70;5.10;;;;;;;4.88;78.37;100208.30;129623;1279;114811;-63
2024/01/23 01:28:48;;;;;;;9.40;5.50;;;;;;;4.84;78.30;100206.46;129894;1279;114722;-65
2024/01/23 01:31:51;;;;;;;8.40;5.00;;;;;;;4.78;78.32;100203.09;129808;1260;114774;-64
2024/01/23 01:34:53;;;;;;;10.00;5.60;;;;;;;4.73;78.48;100206.59;129498;1265;114780;-63
2024/01/23 01:37:55;;;;;;;10.30;5.90;;;;;;;4.68;78.55;100203.35;129784;1279;116363;-64
2024/01/23 01:41:01;;;;;;;10.00;5.80;;;;;;;4.64;78.79;100201.88;129477;1264;114696;-64
2024/01/23 01:44:04;;;;;;;9.60;6.00;;;;;;;4.60;78.58;100204.98;129787;1279;114767;-63
2024/01/23 01:47:08;;;;;;;10.50;5.90;;;;;;;4.58;78.69;100210.70;129874;1279;114810;-62
2024/01/23 01:50:10;;;;;;;9.00;5.30;;;;;;;4.55;78.78;100218.02;129714;1279;115100;-63
2024/01/23 01:53:12;;;;;;;11.50;6.60;;;;;;;4.54;78.87;100219.81;129662;1280;114783;-63
2024/01/23 01:56:14;;;;;;;10.40;5.90;;;;;;;4.53;78.97;100220.54;129685;1280;114724;-63
2024/01/23 01:59:23;;;;;;;11.00;5.70;;;;;;;4.53;78.88;100222.67;129769;1261;114768;-65
2024/01/23 02:02:26;;;;;;;12.40;5.70;;;;;;;4.53;78.98;100227.27;130152;1257;115424;-63
2024/01/23 02:05:28;;;;;;;10.60;6.20;;;;;;;4.54;79.06;100228.13;130038;1277;114789;-63
2024/01/23 02:08:30;;;;;;;7.90;5.10;;;;;;;4.54;78.91;100234.50;129982;1277;114700;-63
2024/01/23 02:11:33;;;;;;;7.40;5.10;;;;;;;4.54;79.16;100244.92;130005;1277;128789;-62
2024/01/23 02:14:35;;;;;;;9.50;5.70;;;;;;;4.54;79.10;100302.94;130090;1256;115156;-62
2024/01/23 02:17:39;;;;;;;7.30;5.70;;;;;;;4.53;79.16;100275.73;129977;1269;114821;-65
2024/01/23 02:20:41;;;;;;;10.40;5.60;;;;;;;4.55;79.24;100270.17;130016;1277;115300;-63
2024/01/23 02:23:43;;;;;;;7.90;4.10;;;;;;;4.58;79.35;100278.96;130034;1268;114693;-64
2024/01/23 02:26:45;;;;;;;10.10;4.90;;;;;;;4.60;79.21;100289.88;129903;1258;115148;-65
2024/01/23 02:29:47;;;;;;;8.70;4.70;;;;;;;4.61;79.31;100283.66;129953;1271;114782;-64
2024/01/23 02:32:49;;;;;;;7.70;4.70;;;;;;;4.63;79.12;100276.02;130030;1277;115303;-64
2024/01/23 02:35:52;;;;;;;8.60;4.90;;;;;;;4.65;79.25;100271.36;130073;1277;114779;-64
2024/01/23 02:38:54;;;;;;;8.50;4.60;;;;;;;4.66;79.29;100270.44;129596;1262;114789;-64
2024/01/23 02:41:56;;;;;;;9.80;5.20;;;;;;;4.68;79.05;100264.91;129913;1277;115356;-63
2024/01/23 02:44:58;;;;;;;11.70;6.30;;;;;;;4.69;79.05;100260.66;130055;1277;114820;-64
2024/01/23 02:48:00;;;;;;;11.70;5.60;;;;;;;4.69;79.16;100259.23;129698;1277;114894;-64
2024/01/23 02:51:02;;;;;;;7.90;4.80;;;;;;;4.68;79.14;100252.86;129908;1277;114783;-63
2024/01/23 02:54:04;;;;;;;9.10;4.90;;;;;;;4.67;78.99;100256.98;130078;1277;114782;-63
2024/01/23 02:57:06;;;;;;;10.60;5.50;;;;;;;4.64;79.02;100255.11;129715;1273;114903;-63
2024/01/23 03:00:09;;;;;;;7.80;4.30;;;;;;;4.61;78.95;100260.67;130056;1277;114810;-63
2024/01/23 03:03:11;;;;;;;7.20;4.50;;;;;;;4.58;79.00;100264.98;129997;1277;114701;-64
2024/01/23 03:06:13;;;;;;;7.30;4.80;;;;;;;4.56;79.17;100272.27;130111;1277;115339;-63
2024/01/23 03:09:15;;;;;;;7.90;4.60;;;;;;;4.55;79.26;100270.18;130005;1277;114798;-64
2024/01/23 03:12:22;;;;;;;9.60;4.80;;;;;;;4.54;79.20;100263.84;129908;1273;114757;-64
2024/01/23 03:15:24;;;;;;;7.50;5.20;;;;;;;4.55;79.27;100264.89;129998;1257;114728;-64
2024/01/23 03:18:26;;;;;;;9.60;4.70;;;;;;;4.55;79.28;100272.15;129978;1258;114727;-64
2024/01/23 03:21:28;;;;;;;10.70;5.20;;;;;;;4.55;79.14;100271.95;130048;1277;114776;-64
2024/01/23 03:24:30;;;;;;;8.20;5.40;;;;;;;4.56;79.33;100269.64;129998;1254;114824;-65
2024/01/23 03:27:32;;;;;;;8.80;5.80;;;;;;;4.56;79.41;100269.98;130023;1277;114714;-64
2024/01/23 03:30:34;;;;;;;8.30;4.80;;;;;;;4.56;79.34;100270.69;130019;1254;115608;-64
2024/01/23 03:33:36;;;;;;;8.10;4.50;;;;;;;4.56;79.15;100266.80;130013;1258;128960;-64
2024/01/23 03:36:38;;;;;;;8.20;5.90;;;;;;;4.56;79.25;100267.87;129971;1271;114820;-64
2024/01/23 03:39:40;;;;;;;8.90;5.70;;;;;;;4.55;79.15;100275.14;130035;1277;115316;-64
2024/01/23 03:42:42;;;;;;;8.60;5.20;;;;;;;4.53;79.28;100280.49;129664;1253;114850;-64
2024/01/23 03:45:44;;;;;;;9.00;4.90;;;;;;;4.52;79.34;100280.16;129974;1257;114735;-64
2024/01/23 03:48:46;;;;;;;9.70;6.00;;;;;;;4.50;79.29;100278.27;130143;1277;114946;-64
2024/01/23 03:51:48;;;;;;;9.40;5.00;;;;;;;4.50;79.44;100282.52;129957;1273;115391;-64
2024/01/23 03:54:51;;;;;;;8.90;6.00;;;;;;;4.47;79.40;100285.23;130003;1277;114727;-64
2024/01/23 03:57:53;;;;;;;10.10;6.40;;;;;;;4.45;79.53;100289.90;129713;1277;114732;-63
2024/01/23 04:00:59;;;;;;;9.30;6.00;;;;;;;4.45;79.58;100296.63;130049;1257;115246;-63
2024/01/23 04:04:02;;;;;;;8.80;5.20;;;;;;;4.45;79.69;100295.75;129944;1257;115075;-63
2024/01/23 04:07:07;;;;;;;10.80;4.90;;;;;;;4.44;79.58;100291.51;130029;1257;114772;-63
2024/01/23 04:10:09;;;;;;;9.60;5.40;;;;;;;4.44;79.63;100291.52;129549;1277;114889;-64
2024/01/23 04:13:11;;;;;;;9.50;5.40;;;;;;;4.44;79.76;100290.80;129937;1273;115359;-63
2024/01/23 04:16:13;;;;;;;10.70;5.60;;;;;;;4.44;79.82;100290.62;129914;1277;114699;-63
2024/01/23 04:19:15;;;;;;;9.80;6.10;;;;;;;4.45;79.96;100295.74;129996;1277;114771;-63
2024/01/23 04:22:19;;;;;;;11.40;6.00;;;;;;;4.44;80.03;100302.83;129630;1253;115145;-63
2024/01/23 04:25:21;;;;;;;9.10;5.90;;;;;;;4.44;80.03;100303.00;130026;1272;114738;-63
2024/01/23 04:28:23;;;;;;;11.20;5.50;;;;;;;4.44;80.05;100299.27;129941;1254;115207;-64
2024/01/23 04:31:25;;;;;;;8.60;5.90;;;;;;;4.43;80.13;100299.65;130003;1253;115388;-64
2024/01/23 04:34:29;;;;;;;6.50;4.60;;;;;;;4.44;80.17;100305.48;129736;1277;128360;-64
2024/01/23 04:37:31;;;;;;;7.30;5.60;;;;;;;4.45;80.24;100305.98;129695;1277;114889;-64
2024/01/23 04:40:33;;;;;;;9.40;5.30;;;;;;;4.46;80.29;100304.55;129971;1277;114788;-63
2024/01/23 04:43:36;;;;;;;9.30;5.50;;;;;;;4.47;80.44;100303.11;130017;1270;114700;-63
2024/01/23 04:46:38;;;;;;;8.90;6.40;;;;;;;4.48;80.35;100297.23;129983;1277;114778;-64
2024/01/23 04:49:40;;;;;;;9.80;5.30;;;;;;;4.50;80.39;100302.67;129947;1277;115154;-64
2024/01/23 04:52:42;;;;;;;9.80;6.00;;;;;;;4.51;80.31;100311.69;130000;1259;115614;-63
2024/01/23 04:55:43;;;;;;;9.60;5.90;;;;;;;4.51;80.36;100314.32;129998;1258;128628;-63
2024/01/23 04:58:46;;;;;;;8.50;6.10;;;;;;;4.53;80.54;100318.53;130105;1258;115765;-64
2024/01/23 05:01:48;;;;;;;8.90;6.10;;;;;;;4.54;80.47;100323.29;130032;1259;114980;-64
2024/01/23 05:04:50;;;;;;;10.70;5.30;;;;;;;4.55;80.49;100332.63;129908;1254;114776;-64
2024/01/23 05:07:51;;;;;;;9.40;6.30;;;;;;;4.56;80.66;100335.08;129938;1259;115377;-63
2024/01/23 05:10:53;;;;;;;12.00;7.70;;;;;;;4.58;80.53;100350.23;130116;1273;114717;-63
2024/01/23 05:13:55;;;;;;;10.90;7.80;;;;;;;4.59;80.81;100361.02;129867;1254;114865;-63
2024/01/23 05:16:57;;;;;;;10.40;6.20;;;;;;;4.58;80.95;100375.35;129759;1262;114777;-64
2024/01/23 05:19:59;;;;;;;34.20;17.70;;;;;;;4.54;81.00;100371.92;129973;1277;115389;-63
2024/01/23 05:23:03;;;;;;;26.00;15.30;;;;;;;4.51;81.11;100367.20;129565;1277;114913;-63
2024/01/23 05:26:05;;;;;;;17.50;9.10;;;;;;;4.50;80.99;100361.73;130004;1253;114712;-63
2024/01/23 05:29:07;;;;;;;14.20;7.50;;;;;;;4.47;81.04;100357.92;129934;1277;114712;-63
2024/01/23 05:32:09;;;;;;;11.20;6.60;;;;;;;4.46;81.34;100364.86;129888;1274;114886;-63
2024/01/23 05:35:11;;;;;;;10.80;6.40;;;;;;;4.44;81.47;100364.55;129525;1269;114904;-63
2024/01/23 05:38:13;;;;;;;12.80;6.80;;;;;;;4.44;81.49;100364.73;130023;1277;114795;-64
2024/01/23 05:41:16;;;;;;;10.60;6.80;;;;;;;4.44;81.48;100369.16;130080;1253;114718;-63
2024/01/23 05:44:19;;;;;;;14.40;8.30;;;;;;;4.42;81.45;100367.94;129611;1277;114806;-63
2024/01/23 05:47:21;;;;;;;20.50;10.50;;;;;;;4.39;81.36;100372.79;129906;1277;114774;-63
2024/01/23 05:50:24;;;;;;;23.70;11.70;;;;;;;4.37;81.49;100379.36;129965;1277;115240;-63
2024/01/23 05:53:26;;;;;;;24.50;10.70;;;;;;;4.36;81.45;100381.19;129695;1260;114885;-63
2024/01/23 05:56:28;;;;;;;19.10;10.70;;;;;;;4.34;81.47;100376.44;129940;1270;114705;-63
2024/01/23 05:59:30;;;;;;;18.90;10.30;;;;;;;4.32;81.47;100379.84;129981;1277;114698;-63
2024/01/23 06:02:32;;;;;;;20.10;12.20;;;;;;;4.30;81.52;100379.88;129654;1268;128548;-62
2024/01/23 06:05:34;;;;;;;21.30;11.40;;;;;;;4.29;81.28;100391.77;129866;1254;115019;-64
2024/01/23 06:08:36;;;;;;;19.30;12.50;;;;;;;4.25;81.47;100397.83;130073;1277;115366;-63
2024/01/23 06:11:39;;;;;;;18.40;10.50;;;;;;;4.23;81.30;100393.83;129637;1262;114772;-63
2024/01/23 06:14:45;;;;;;;18.70;11.00;;;;;;;4.18;81.14;100386.70;130063;1274;114718;-63
2024/01/23 06:17:46;;;;;;;18.50;10.20;;;;;;;4.10;81.20;100384.23;130002;1258;115361;-64
2024/01/23 06:20:48;;;;;;;22.50;10.00;;;;;;;4.03;81.26;100381.70;129884;1277;115310;-63
2024/01/23 06:23:50;;;;;;;19.80;10.30;;;;;;;3.95;81.02;100389.64;130052;1277;114777;-63
2024/01/23 06:26:52;;;;;;;31.40;14.50;;;;;;;3.89;81.36;100398.27;129917;1277;114719;-63
2024/01/23 06:29:54;;;;;;;26.20;14.40;;;;;;;3.84;81.34;100418.67;130003;1277;114714;-63
2024/01/23 06:32:57;;;;;;;23.00;11.30;;;;;;;3.83;81.82;100418.17;129980;1268;114703;-64
2024/01/23 06:35:59;;;;;;;23.50;11.60;;;;;;;3.83;81.97;100417.09;129988;1254;114683;-63
2024/01/23 06:39:01;;;;;;;22.10;11.30;;;;;;;3.85;82.18;100411.95;129664;1277;114892;-63
2024/01/23 06:42:03;;;;;;;23.40;11.40;;;;;;;3.85;82.14;100416.52;129996;1277;114741;-64
2024/01/23 06:45:06;;;;;;;18.20;8.80;;;;;;;3.87;82.41;100421.98;129990;1277;128710;-63
2024/01/23 06:48:08;;;;;;;14.40;7.20;;;;;;;3.87;82.47;100427.09;129960;1277;114830;-63
2024/01/23 06:51:10;;;;;;;14.40;7.90;;;;;;;3.88;82.61;100435.57;129996;1259;114769;-64
2024/01/23 06:54:13;;;;;;;11.80;6.30;;;;;;;3.89;82.66;100443.14;130035;1277;114669;-63
2024/01/23 06:57:14;;;;;;;13.20;7.80;;;;;;;3.90;82.77;100444.70;130022;1275;114719;-63
2024/01/23 07:00:17;;;;;;;14.40;7.60;;;;;;;3.91;82.94;100454.92;129955;1277;114716;-64
2024/01/23 07:03:22;;;;;;;10.80;7.20;;;;;;;3.94;83.03;100459.65;129631;1277;127808;-63
2024/01/23 07:06:25;;;;;;;11.10;7.80;;;;;;;3.99;83.14;100466.09;129957;1277;114721;-63
2024/01/23 07:09:27;;;;;;;16.20;8.70;;;;;;;4.05;83.28;100474.81;130019;1277;114766;-64
2024/01/23 07:12:29;;;;;;;12.60;6.20;;;;;;;4.11;83.32;100485.65;129997;1277;115166;-64
2024/01/23 07:15:31;;;;;;;10.90;5.10;;;;;;;4.15;83.37;100503.59;129968;1259;114684;-63
2024/01/23 07:18:33;;;;;;;11.20;5.90;;;;;;;4.17;83.22;100522.65;129987;1260;114720;-63
2024/01/23 07:21:35;;;;;;;10.90;5.10;;;;;;;4.19;83.63;100537.11;130210;1277;114815;-63
2024/01/23 07:24:37;;;;;;;9.20;4.20;;;;;;;4.21;83.46;100540.41;129882;1278;129110;-63
2024/01/23 07:27:40;;;;;;;7.80;3.70;;;;;;;4.25;83.63;100545.83;129902;1267;114704;-63
2024/01/23 07:30:42;;;;;;;10.30;4.90;;;;;;;4.30;83.90;100549.98;129984;1278;114730;-62
2024/01/23 07:33:44;;;;;;;13.10;5.70;;;;;;;4.35;83.87;100558.54;129849;1278;114721;-63
2024/01/23 07:36:46;;;;;;;14.70;4.10;;;;;;;4.40;84.06;100560.20;129486;1255;115242;-62
2024/01/23 07:39:49;;;;;;;9.90;4.90;;;;;;;4.45;84.28;100564.36;129814;1278;115672;-62
2024/01/23 07:42:52;;;;;;;10.30;4.60;;;;;;;4.48;84.30;100556.68;130029;1275;114724;-64
2024/01/23 07:45:54;;;;;;;8.70;4.00;;;;;;;4.52;84.35;100552.38;129983;1254;114696;-62
2024/01/23 07:48:56;;;;;;;7.70;2.50;;;;;;;4.56;84.54;100555.46;129726;1277;114884;-64
2024/01/23 07:51:58;;;;;;;9.40;3.10;;;;;;;4.62;84.60;100558.70;130032;1275;115196;-62
2024/01/23 07:55:01;;;;;;;10.60;4.00;;;;;;;4.71;84.74;100556.05;129976;1258;115160;-62
2024/01/23 07:58:03;;;;;;;10.10;4.00;;;;;;;4.80;84.88;100557.27;129889;1272;114817;-61
2024/01/23 08:01:05;;;;;;;7.30;3.20;;;;;;;4.88;84.84;100571.60;130012;1260;114924;-62
2024/01/23 08:04:08;;;;;;;7.20;3.00;;;;;;;4.97;85.03;100571.40;129931;1259;114676;-63
2024/01/23 08:07:10;;;;;;;8.10;3.50;;;;;;;5.08;85.26;100572.23;129823;1270;128847;-62
2024/01/23 08:10:12;;;;;;;7.90;2.60;;;;;;;5.16;84.98;100579.48;129917;1275;114803;-62
2024/01/23 08:13:14;;;;;;;9.30;2.70;;;;;;;5.23;84.91;100588.70;129997;1270;114728;-63
2024/01/23 08:16:16;;;;;;;9.40;3.00;;;;;;;5.28;84.90;100593.73;129623;1270;114805;-63
2024/01/23 08:19:18;;;;;;;10.90;2.50;;;;;;;5.34;84.64;100601.05;130008;1268;114772;-62
2024/01/23 08:22:20;;;;;;;8.00;2.90;;;;;;;5.38;84.70;100600.23;130051;1253;114801;-63
2024/01/23 08:25:22;;;;;;;8.50;2.80;;;;;;;5.41;84.45;100597.15;129855;1269;114812;-63
2024/01/23 08:28:25;;;;;;;10.70;3.00;;;;;;;5.42;84.18;100598.90;129504;1275;128600;-63
2024/01/23 08:31:28;;;;;;;7.80;2.30;;;;;;;5.43;84.19;100610.21;129786;1269;115276;-63
2024/01/23 08:34:30;;;;;;;8.40;3.00;;;;;;;5.46;84.17;100619.02;129908;1277;114830;-63
2024/01/23 08:37:32;;;;;;;8.60;2.60;;;;;;;5.47;84.10;100612.77;130029;1274;114629;-63
2024/01/23 08:40:34;;;;;;;7.40;2.80;;;;;;;5.51;84.26;100610.74;129927;1259;115025;-62
2024/01/23 08:43:36;;;;;;;7.00;1.80;;;;;;;5.51;83.96;100612.70;129820;1269;115256;-63
2024/01/23 08:46:37;;;;;;;6.20;2.50;;;;;;;5.54;84.01;100610.31;129923;1258;114782;-63
2024/01/23 08:49:40;;;;;;;9.60;2.50;;;;;;;5.63;84.19;100614.52;129624;1262;129173;-63
2024/01/23 08:52:43;;;;;;;5.10;1.90;;;;;;;5.79;84.25;100624.62;129883;1269;114794;-63
2024/01/23 08:55:46;;;;;;;5.80;2.10;;;;;;;5.93;84.30;100636.30;129962;1274;114715;-63
2024/01/23 08:58:49;;;;;;;7.20;1.70;;;;;;;6.12;84.14;100641.02;129919;1259;114706;-63
2024/01/23 09:01:51;;;;;;;3.90;1.20;;;;;;;6.26;83.84;100645.79;129929;1277;115133;-63
2024/01/23 09:04:53;;;;;;;6.00;1.60;;;;;;;6.34;83.19;100652.33;130052;1269;114705;-62
2024/01/23 09:07:55;;;;;;;5.00;1.70;;;;;;;6.41;83.21;100655.34;129458;1254;128853;-63
2024/01/23 09:10:57;;;;;;;6.10;1.90;;;;;;;6.47;82.62;100653.75;129867;1258;114722;-63
2024/01/23 09:13:59;;;;;;;4.30;1.40;;;;;;;6.54;82.58;100663.67;129912;1275;114726;-64
2024/01/23 09:17:01;;;;;;;5.10;1.30;;;;;;;6.61;82.27;100671.68;129574;1277;114735;-64
2024/01/23 09:20:06;;;;;;;6.30;1.50;;;;;;;6.64;82.17;100686.66;130009;1270;114792;-68
2024/01/23 09:23:07;;;;;;;4.00;1.80;;;;;;;6.68;81.73;100693.13;129895;1274;114700;-69
2024/01/23 09:26:12;;;;;;;13.60;4.80;;;;;;;6.72;81.54;100695.66;129787;1272;114710;-68
2024/01/23 09:29:15;;;;;;;8.70;3.40;;;;;;;6.84;81.64;100698.72;129908;1269;114786;-70
2024/01/23 09:32:16;;;;;;;22.80;6.10;;;;;;;7.05;81.68;100697.08;130246;1259;114779;-71
2024/01/23 09:35:18;;;;;;;5.30;1.80;;;;;;;7.26;81.34;100690.80;130290;1272;114704;-70
2024/01/23 09:38:21;;;;;;;6.10;1.90;;;;;;;7.43;81.24;100689.76;129918;1255;114719;-69
2024/01/23 09:41:23;;;;;;;7.80;2.10;;;;;;;7.63;80.98;100695.54;129878;1275;114798;-70
2024/01/23 09:44:26;;;;;;;7.70;2.30;;;;;;;7.82;80.91;100688.21;129913;1256;114694;-70
2024/01/23 09:47:28;;;;;;;7.30;1.30;;;;;;;7.92;80.26;100688.58;130288;1269;114819;-70
2024/01/23 09:50:31;;;;;;;8.90;2.20;;;;;;;7.99;79.50;100697.80;130371;1270;115202;-70
2024/01/23 09:53:33;;;;;;;5.40;1.40;;;;;;;8.01;79.12;100700.57;129678;1265;114968;-69
2024/01/23 09:56:36;;;;;;;8.90;2.90;;;;;;;7.98;78.58;100688.58;129746;1260;114892;-70
2024/01/23 09:59:38;;;;;;;7.50;2.10;;;;;;;7.96;78.52;100681.33;129875;1277;114702;-71
2024/01/23 10:02:42;;;;;;;7.30;2.10;;;;;;;7.94;78.36;100681.25;130260;1259;114804;-70
2024/01/23 10:05:44;;;;;;;8.20;2.20;;;;;;;7.90;78.04;100687.92;130044;1254;114717;-68
2024/01/23 10:08:46;;;;;;;5.90;1.50;;;;;;;7.88;77.89;100694.05;129918;1260;114702;-69
2024/01/23 10:11:48;;;;;;;5.70;2.00;;;;;;;7.87;77.79;100693.90;129846;1259;114665;-67
2024/01/23 10:14:50;;;;;;;6.40;1.70;;;;;;;7.87;77.83;100697.99;129852;1259;114766;-67
2024/01/23 10:17:53;;;;;;;5.10;1.70;;;;;;;7.83;77.42;100703.65;129821;1259;115046;-67
2024/01/23 10:20:57;;;;;;;6.10;1.40;;;;;;;7.78;77.44;100710.71;129867;1259;114747;-71
2024/01/23 10:24:00;;;;;;;4.90;1.40;;;;;;;7.72;76.92;100720.50;130058;1276;128969;-71
2024/01/23 10:27:03;;;;;;;5.80;2.40;;;;;;;7.72;76.81;100724.59;130505;1260;114722;-71
2024/01/23 10:30:06;;;;;;;8.10;1.80;;;;;;;7.81;76.87;100718.98;130406;1276;116388;-71
2024/01/23 10:33:10;;;;;;;4.50;1.50;;;;;;;7.94;77.04;100718.93;130513;1257;114817;-68
2024/01/23 10:36:12;;;;;;;16.40;4.90;;;;;;;8.10;76.98;100727.30;129862;1259;115118;-69
2024/01/23 10:39:14;;;;;;;6.00;1.90;;;;;;;8.23;76.34;100730.27;129841;1259;114727;-68
2024/01/23 10:42:20;;;;;;;16.40;4.80;;;;;;;8.35;75.98;100731.30;129878;1253;115052;-66
2024/01/23 10:45:23;;;;;;;5.90;2.20;;;;;;;8.44;75.73;100736.55;130000;1267;114725;-71
2024/01/23 10:48:25;;;;;;;14.20;5.20;;;;;;;8.49;75.48;100743.87;130062;1256;114738;-72
2024/01/23 10:51:31;;;;;;;13.00;3.80;;;;;;;8.52;75.21;100744.30;130355;1254;114755;-69
2024/01/23 10:54:40;;;;;;;5.70;1.90;;;;;;;8.55;74.84;100750.25;129919;1276;114747;-69
2024/01/23 10:57:47;;;;;;;12.30;2.80;;;;;;;8.55;74.37;100748.13;130002;1260;128971;-71
2024/01/23 11:00:50;;;;;;;4.80;1.40;;;;;;;8.58;74.32;100749.26;129780;1277;114758;-70
2024/01/23 11:03:53;;;;;;;5.60;1.70;;;;;;;8.63;74.18;100754.06;129614;1254;114717;-71
2024/01/23 11:06:58;;;;;;;10.40;2.20;;;;;;;8.68;74.16;100747.48;130434;1263;114873;-71
2024/01/23 11:10:09;;;;;;;4.20;1.80;;;;;;;8.71;73.67;100748.45;130230;1269;114679;-72
2024/01/23 11:13:23;;;;;;;6.00;1.70;;;;;;;8.74;73.56;100737.84;129802;1254;224801;-68
2024/01/23 11:16:27;;;;;;;7.00;2.20;;;;;;;8.79;73.33;100733.20;129544;1270;114786;-71
2024/01/23 11:19:29;;;;;;;8.00;2.30;;;;;;;8.83;73.29;100742.72;130021;1257;114739;-69
2024/01/23 11:22:31;;;;;;;7.50;2.50;;;;;;;8.88;73.11;100754.81;129925;1272;114737;-72
2024/01/23 11:25:33;;;;;;;5.60;2.00;;;;;;;8.91;72.69;100753.65;130422;1269;114641;-71
2024/01/23 11:28:36;;;;;;;7.10;1.80;;;;;;;8.92;72.57;100750.93;130359;1259;114705;-70
2024/01/23 11:31:39;;;;;;;10.10;4.20;;;;;;;8.94;72.23;100753.19;129421;1262;128559;-70
2024/01/23 11:34:41;;;;;;;6.20;1.60;;;;;;;8.94;72.26;100756.05;130004;1276;114705;-70
2024/01/23 11:37:55;;;;;;;8.10;1.80;;;;;;;8.90;71.89;100755.64;129934;1267;114820;-69
2024/01/23 11:40:59;;;;;;;6.60;1.60;;;;;;;8.86;71.61;100760.40;129811;1257;114850;-69
2024/01/23 11:44:01;;;;;;;5.60;1.70;;;;;;;8.79;71.42;100761.70;129829;1254;114708;-69
2024/01/23 11:47:03;;;;;;;5.10;1.60;;;;;;;8.76;71.49;100772.53;129848;1276;114705;-68
2024/01/23 11:50:07;;;;;;;6.80;1.60;;;;;;;8.69;71.10;100759.23;130011;1276;114781;-68
2024/01/23 11:53:10;;;;;;;5.30;1.30;;;;;;;8.66;71.25;100760.02;129928;1276;115056;-71
2024/01/23 11:56:13;;;;;;;6.50;1.70;;;;;;;8.67;71.20;100768.55;130454;1257;115243;-71
2024/01/23 11:59:15;;;;;;;4.90;1.20;;;;;;;8.65;70.94;100776.96;129994;1264;114976;-71
2024/01/23 12:02:19;;;;;;;9.10;2.20;;;;;;;8.64;70.95;100775.77;129843;1259;115249;-68
2024/01/23 12:05:21;;;;;;;6.60;1.50;;;;;;;8.63;70.74;100788.26;129992;1259;114837;-67
2024/01/23 12:08:23;;;;;;;10.40;2.50;;;;;;;8.63;70.58;100786.13;130174;1270;114852;-68
2024/01/23 12:11:26;;;;;;;7.60;2.10;;;;;;;8.61;70.66;100786.17;130082;1277;114688;-68
2024/01/23 12:14:28;;;;;;;7.10;1.50;;;;;;;8.59;70.08;100780.58;129904;1259;114765;-63
2024/01/23 12:17:34;;;;;;;6.30;2.00;;;;;;;8.54;70.04;100782.50;129958;1277;114677;-62
2024/01/23 12:20:36;;;;;;;6.70;2.50;;;;;;;8.51;69.61;100788.50;129636;1277;116244;-63
2024/01/23 12:23:39;;;;;;;9.60;2.90;;;;;;;8.47;69.80;100786.99;129900;1276;114710;-63
2024/01/23 12:26:41;;;;;;;7.70;2.20;;;;;;;8.42;69.73;100786.61;130094;1277;114699;-62
2024/01/23 12:29:44;;;;;;;5.20;1.80;;;;;;;8.39;69.53;100786.00;129416;1277;114903;-62
2024/01/23 12:32:49;;;;;;;10.80;1.70;;;;;;;8.31;69.38;100792.83;129856;1259;115294;-62
2024/01/23 12:35:52;;;;;;;9.70;2.60;;;;;;;8.21;69.22;100810.25;129821;1259;114721;-62
2024/01/23 12:38:55;;;;;;;7.30;2.20;;;;;;;8.11;69.63;100809.84;129895;1259;115305;-62
2024/01/23 12:41:57;;;;;;;8.00;1.50;;;;;;;8.04;69.56;100804.52;129871;1260;114722;-62
2024/01/23 12:44:59;;;;;;;11.90;3.10;;;;;;;8.00;69.78;100804.11;129940;1267;114804;-61
2024/01/23 12:48:02;;;;;;;8.20;2.80;;;;;;;7.96;69.61;100804.43;130039;1277;115192;-62
2024/01/23 12:51:04;;;;;;;6.20;1.40;;;;;;;7.92;69.19;100800.27;129692;1262;114712;-63
2024/01/23 12:54:08;;;;;;;5.10;2.20;;;;;;;7.90;69.62;100803.00;129863;1268;114698;-63
2024/01/23 12:57:14;;;;;;;10.20;2.20;;;;;;;7.87;69.06;100810.40;130083;1260;115163;-62
2024/01/23 13:00:19;;;;;;;7.50;1.30;;;;;;;7.87;69.43;100810.04;129674;1279;128414;-62
2024/01/23 13:03:21;;;;;;;9.40;1.80;;;;;;;7.88;69.34;100815.14;129604;1280;114965;-62
2024/01/23 13:06:24;;;;;;;8.10;2.10;;;;;;;7.90;69.25;100826.11;129652;1270;114719;-63
2024/01/23 13:09:26;;;;;;;7.00;2.20;;;;;;;7.92;69.27;100826.78;129691;1260;115391;-63
2024/01/23 13:12:29;;;;;;;5.60;2.10;;;;;;;7.93;69.21;100829.96;129798;1262;115460;-63
2024/01/23 13:15:32;;;;;;;7.30;2.20;;;;;;;7.92;69.35;100834.06;129952;1278;114719;-63
2024/01/23 13:18:34;;;;;;;6.10;1.90;;;;;;;7.90;69.13;100847.10;130103;1261;128413;-62
2024/01/23 13:21:36;;;;;;;7.50;1.70;;;;;;;7.84;69.11;100846.95;129914;1262;115172;-62
2024/01/23 13:24:38;;;;;;;6.30;2.00;;;;;;;7.77;69.12;100856.04;129806;1266;114742;-63
2024/01/23 13:27:41;;;;;;;6.00;1.60;;;;;;;7.71;69.17;100859.74;129739;1260;114713;-62
2024/01/23 13:30:43;;;;;;;7.60;3.10;;;;;;;7.66;69.11;100859.37;129971;1278;115394;-62
2024/01/23 13:33:45;;;;;;;8.90;1.90;;;;;;;7.61;69.27;100855.95;129745;1278;114810;-64
2024/01/23 13:36:47;;;;;;;7.60;1.90;;;;;;;7.55;69.64;100857.36;129855;1270;114795;-62
2024/01/23 13:39:52;;;;;;;9.10;2.40;;;;;;;7.48;69.34;100858.42;129508;1270;127520;-62
2024/01/23 13:42:58;;;;;;;7.40;2.00;;;;;;;7.42;69.62;100856.82;129794;1270;114753;-63
2024/01/23 13:46:00;;;;;;;10.80;2.60;;;;;;;7.38;69.44;100849.29;129653;1261;114779;-62
2024/01/23 13:49:03;;;;;;;4.60;1.60;;;;;;;7.35;69.42;100852.40;129713;1260;114712;-62
2024/01/23 13:52:06;;;;;;;6.10;1.80;;;;;;;7.33;69.72;100861.16;129654;1278;115250;-62
2024/01/23 13:55:09;;;;;;;9.60;2.40;;;;;;;7.32;69.75;100864.91;129807;1273;114789;-63